Terminal Aerodrome Forecast
Issued by NWS

Current Version | Previous Version | Text Only | Print | Product List | Glossary On
Versions: 1 2 3 4 5 6 7 8 9 10 11 12
000
FTUS44 KJAN 010500
TAFGTR
TAF
KGTR 010523Z 0106/0206 00000KT P6SM OVC120
     FM011500 36006KT P6SM SCT030 BKN100
     FM020000 36003KT P6SM BKN150=

USA.gov is the U.S. government's official web portal to all federal, state and local government web resources and services.